createdAt,value
2019-03-04T00:01:56.485Z,9.14
2019-03-04T00:04:29.993Z,9.18
2019-03-04T00:07:02.309Z,9.16
2019-03-04T00:09:33.637Z,9.21
2019-03-04T00:12:05.808Z,9.27
2019-03-04T00:14:39.070Z,9.35
2019-03-04T00:17:11.832Z,9.36
2019-03-04T00:19:47.250Z,9.38
2019-03-04T00:22:22.151Z,9.40
2019-03-04T00:24:54.549Z,9.46
2019-03-04T00:27:27.031Z,9.44
2019-03-04T00:29:59.640Z,9.46
2019-03-04T00:32:34.879Z,9.51
2019-03-04T00:35:09.999Z,9.53
2019-03-04T00:37:46.957Z,9.54
2019-03-04T00:40:19.668Z,9.55
2019-03-04T00:42:54.379Z,9.62
2019-03-04T00:45:26.808Z,9.69
2019-03-04T00:47:59.060Z,9.74
2019-03-04T00:50:36.370Z,9.83
2019-03-04T00:53:08.405Z,9.84
2019-03-04T00:55:39.647Z,9.83
2019-03-04T00:58:11.777Z,9.83
2019-03-04T01:00:43.137Z,9.81
2019-03-04T01:03:15.299Z,9.82
2019-03-04T01:05:47.668Z,9.83
2019-03-04T01:08:20.049Z,9.82
2019-03-04T01:10:51.297Z,9.81
2019-03-04T01:13:24.768Z,9.80
2019-03-04T01:15:57.549Z,9.77
2019-03-04T01:18:29.959Z,9.79
2019-03-04T01:21:02.340Z,9.80
2019-03-04T01:23:34.739Z,9.78
2019-03-04T01:26:08.149Z,9.83
2019-03-04T01:28:40.679Z,9.86
2019-03-04T01:31:12.981Z,9.84
2019-03-04T01:33:45.968Z,9.81
2019-03-04T01:36:18.249Z,9.80
2019-03-04T01:38:53.439Z,9.81
2019-03-04T01:41:26.902Z,9.78
2019-03-04T01:43:59.230Z,9.79
2019-03-04T01:46:30.690Z,9.78
2019-03-04T01:49:02.969Z,9.75
2019-03-04T01:51:35.780Z,9.74
2019-03-04T01:54:08.039Z,9.75
2019-03-04T01:56:39.277Z,9.76
2019-03-04T01:59:14.069Z,9.73
2019-03-04T02:01:46.329Z,9.70
2019-03-04T02:04:17.510Z,9.64
2019-03-04T02:06:49.740Z,9.60
2019-03-04T02:09:23.481Z,9.61
2019-03-04T02:11:55.849Z,9.68
2019-03-04T02:14:28.150Z,9.70
2019-03-04T02:16:59.317Z,9.67
2019-03-04T02:19:31.403Z,9.65
2019-03-04T02:22:02.771Z,9.62
2019-03-04T02:24:36.052Z,9.61
2019-03-04T02:27:08.545Z,9.62
2019-03-04T02:29:41.068Z,9.62
2019-03-04T02:32:13.532Z,9.61
2019-03-04T02:34:45.807Z,9.53
2019-03-04T02:37:16.898Z,9.56
2019-03-04T02:39:49.088Z,9.53
2019-03-04T02:42:21.481Z,9.53
2019-03-04T02:44:53.730Z,9.50
2019-03-04T02:47:25.078Z,9.49
2019-03-04T02:49:57.279Z,9.47
2019-03-04T02:52:29.593Z,9.47
2019-03-04T02:55:02.869Z,9.46
2019-03-04T02:57:34.209Z,9.43
2019-03-04T03:00:07.597Z,9.38
2019-03-04T03:02:40.457Z,9.35
2019-03-04T03:05:12.901Z,9.30
2019-03-04T03:07:44.173Z,9.27
2019-03-04T03:10:16.361Z,9.26
2019-03-04T03:12:48.749Z,9.22
2019-03-04T03:15:22.329Z,9.21
2019-03-04T03:17:54.721Z,9.19
2019-03-04T03:20:26.447Z,9.17
2019-03-04T03:22:58.720Z,9.13
2019-03-04T03:25:30.947Z,9.11
2019-03-04T03:28:02.353Z,9.11
2019-03-04T03:30:34.679Z,9.14
2019-03-04T03:33:07.071Z,9.14
2019-03-04T03:35:39.601Z,9.13
2019-03-04T03:38:12.000Z,9.13
2019-03-04T03:40:44.326Z,9.15
2019-03-04T03:43:15.588Z,9.12
2019-03-04T03:45:50.400Z,9.08
2019-03-04T03:48:25.780Z,9.08
2019-03-04T03:50:58.020Z,9.08
2019-03-04T03:53:29.280Z,9.05
2019-03-04T03:56:01.699Z,9.05
2019-03-04T03:58:34.131Z,9.07
2019-03-04T04:01:06.497Z,9.07
2019-03-04T04:03:39.692Z,9.09
2019-03-04T04:06:12.122Z,9.17
2019-03-04T04:08:44.515Z,9.17
2019-03-04T04:11:16.889Z,9.18
2019-03-04T04:13:49.419Z,9.24
2019-03-04T04:16:21.822Z,9.26
2019-03-04T04:18:57.301Z,9.30
2019-03-04T04:21:32.330Z,9.33
2019-03-04T04:24:04.821Z,9.34
2019-03-04T04:26:37.060Z,9.36
2019-03-04T04:29:12.527Z,9.37
2019-03-04T04:31:45.000Z,9.36
2019-03-04T04:34:17.219Z,9.36
2019-03-04T04:36:48.369Z,9.36
2019-03-04T04:39:20.519Z,9.33
2019-03-04T04:41:52.869Z,9.33
2019-03-04T04:44:25.260Z,9.34
2019-03-04T04:46:59.277Z,9.39
2019-03-04T04:49:33.990Z,9.42
2019-03-04T04:52:06.381Z,9.41
2019-03-04T04:54:38.729Z,9.40
2019-03-04T04:57:11.229Z,9.40
2019-03-04T04:59:44.093Z,9.42
2019-03-04T05:02:16.522Z,9.44
2019-03-04T05:04:49.029Z,9.42
2019-03-04T05:07:22.599Z,9.44
2019-03-04T05:09:58.391Z,9.42
2019-03-04T05:12:30.960Z,9.44
2019-03-04T05:15:03.739Z,9.50
2019-03-04T05:17:40.889Z,9.49
2019-03-04T05:20:15.831Z,9.50
2019-03-04T05:22:53.639Z,9.54
2019-03-04T05:25:26.400Z,9.54
2019-03-04T05:27:59.019Z,9.55
2019-03-04T05:30:36.898Z,9.53
2019-03-04T05:33:27.720Z,9.61
2019-03-04T05:36:09.981Z,9.64
2019-03-04T05:38:50.101Z,9.66
2019-03-04T05:41:22.569Z,9.70
2019-03-04T05:43:59.320Z,9.71
2019-03-04T05:46:37.809Z,9.70
2019-03-04T05:49:13.163Z,9.72
2019-03-04T05:51:50.591Z,9.74
2019-03-04T05:54:25.722Z,9.72
2019-03-04T05:56:58.190Z,9.67
2019-03-04T05:59:31.839Z,9.65
2019-03-04T06:02:11.920Z,9.65
2019-03-04T06:04:46.300Z,9.69
2019-03-04T06:07:40.789Z,9.74
2019-03-04T06:10:14.610Z,9.77
2019-03-04T06:12:49.849Z,9.80
2019-03-04T06:16:04.403Z,9.88
2019-03-04T06:19:02.599Z,9.91
2019-03-04T06:21:38.057Z,9.95
2019-03-04T06:24:13.749Z,10.00
2019-03-04T06:26:53.548Z,10.03
2019-03-04T06:29:56.018Z,10.05
2019-03-04T06:32:30.150Z,10.07
2019-03-04T06:35:14.318Z,10.10
2019-03-04T06:41:40.657Z,10.13
2019-03-04T07:17:23.700Z,10.36
2019-03-04T07:28:48.861Z,10.57
2019-03-04T07:31:21.899Z,10.74
2019-03-04T07:38:23.157Z,11.12
2019-03-04T07:44:21.241Z,11.73
2019-03-04T07:47:07.050Z,11.88
2019-03-04T07:53:06.549Z,12.39
2019-03-04T07:55:51.077Z,12.74
2019-03-04T07:58:25.755Z,12.91
2019-03-04T08:00:58.029Z,13.00
2019-03-04T08:11:53.770Z,13.53
2019-03-04T08:14:26.519Z,13.81
2019-03-04T08:16:59.209Z,13.88
2019-03-04T08:19:34.560Z,13.98
2019-03-04T08:22:08.549Z,14.09
2019-03-04T08:24:41.881Z,14.35
2019-03-04T08:27:13.202Z,14.56
2019-03-04T08:29:45.539Z,14.71
2019-03-04T08:32:18.069Z,14.86
2019-03-04T08:34:50.979Z,15.04
2019-03-04T08:37:23.449Z,15.31
2019-03-04T08:39:56.409Z,15.34
2019-03-04T08:42:29.353Z,15.43
2019-03-04T08:45:04.110Z,15.66
2019-03-04T08:47:36.649Z,15.54
2019-03-04T08:50:09.989Z,15.67
2019-03-04T08:52:45.123Z,15.77
2019-03-04T08:55:18.131Z,15.85
2019-03-04T08:57:50.984Z,15.92
2019-03-04T09:00:26.709Z,16.10
2019-03-04T09:03:10.099Z,16.26
2019-03-04T09:05:46.700Z,16.43
2019-03-04T09:08:19.090Z,16.42
2019-03-04T09:10:51.500Z,16.20
2019-03-04T09:13:24.226Z,16.53
2019-03-04T09:18:29.247Z,16.80
2019-03-04T09:19:35.170Z,17.23
2019-03-04T09:29:38.299Z,17.42
2019-03-04T09:32:13.359Z,17.57
2019-03-04T09:34:45.690Z,17.61
2019-03-04T09:37:18.229Z,18.43
2019-03-04T09:39:50.631Z,19.03
2019-03-04T09:42:28.759Z,18.70
2019-03-04T09:45:07.369Z,18.64
2019-03-04T09:47:45.427Z,18.30
2019-03-04T09:50:16.760Z,18.07
2019-03-04T09:52:49.199Z,17.79
2019-03-04T09:55:22.009Z,18.20
2019-03-04T09:57:54.559Z,18.56
2019-03-04T10:00:35.133Z,18.90
2019-03-04T10:03:24.349Z,19.53
2019-03-04T10:06:27.138Z,19.37
2019-03-04T10:09:09.320Z,19.53
2019-03-04T10:12:22.649Z,19.89
2019-03-04T10:15:11.338Z,19.91
2019-03-04T10:18:17.530Z,19.77
2019-03-04T10:21:24.977Z,20.27
2019-03-04T10:24:29.329Z,20.53
2019-03-04T10:27:17.020Z,20.27
2019-03-04T10:30:27.369Z,20.08
2019-03-04T10:33:41.839Z,20.63
2019-03-04T10:36:20.310Z,20.74
2019-03-04T10:39:29.839Z,21.59
2019-03-04T10:42:45.969Z,21.68
2019-03-04T10:45:30.183Z,20.74
2019-03-04T10:48:08.102Z,20.88
2019-03-04T10:50:44.020Z,20.66
2019-03-04T10:53:16.399Z,20.67
2019-03-04T10:55:48.830Z,21.00
2019-03-04T10:58:23.119Z,21.20
2019-03-04T11:01:03.922Z,21.34
2019-03-04T11:03:59.401Z,21.76
2019-03-04T11:09:58.349Z,22.17
2019-03-04T11:12:36.003Z,22.04
2019-03-04T11:15:18.263Z,22.03
2019-03-04T11:17:50.761Z,22.41
2019-03-04T11:20:23.090Z,22.22
2019-03-04T11:22:56.082Z,22.45
2019-03-04T11:25:40.278Z,22.59
2019-03-04T11:28:26.399Z,22.17
2019-03-04T11:31:00.759Z,22.45
2019-03-04T11:33:33.412Z,23.01
2019-03-04T11:36:05.748Z,23.10
2019-03-04T11:38:46.410Z,22.39
2019-03-04T11:41:20.909Z,22.51
2019-03-04T11:43:56.337Z,22.17
2019-03-04T11:46:35.199Z,21.89
2019-03-04T11:49:09.310Z,21.67
2019-03-04T11:51:41.939Z,21.99
2019-03-04T11:54:14.350Z,22.36
2019-03-04T11:56:47.091Z,22.03
2019-03-04T11:59:19.648Z,21.46
2019-03-04T12:01:52.180Z,20.99
2019-03-04T12:04:24.540Z,20.61
2019-03-04T12:06:57.169Z,21.28
2019-03-04T12:09:29.601Z,20.60
2019-03-04T12:12:01.991Z,20.01
2019-03-04T12:14:34.549Z,19.42
2019-03-04T12:17:07.537Z,18.80
2019-03-04T12:19:39.929Z,18.59
2019-03-04T12:22:12.530Z,18.16
2019-03-04T12:24:45.137Z,18.09
2019-03-04T12:27:17.729Z,18.21
2019-03-04T12:29:58.398Z,18.16
2019-03-04T12:32:34.039Z,19.28
2019-03-04T12:35:12.493Z,19.65
2019-03-04T12:37:44.949Z,19.91
2019-03-04T12:40:19.640Z,19.70
2019-03-04T12:51:25.410Z,20.51
2019-03-04T12:53:57.900Z,20.61
2019-03-04T12:56:30.261Z,19.96
2019-03-04T12:59:02.749Z,19.50
2019-03-04T13:01:36.231Z,19.28
2019-03-04T13:04:08.729Z,19.18
2019-03-04T13:06:41.109Z,19.26
2019-03-04T13:09:14.976Z,19.98
2019-03-04T13:11:47.529Z,21.07
2019-03-04T13:14:20.009Z,21.27
2019-03-04T13:16:52.409Z,20.93
2019-03-04T13:19:24.889Z,20.81
2019-03-04T13:21:57.219Z,20.86
2019-03-04T13:24:29.660Z,20.08
2019-03-04T13:27:02.010Z,19.66
2019-03-04T13:29:35.120Z,19.78
2019-03-04T13:32:07.799Z,19.73
2019-03-04T13:34:40.249Z,19.54
2019-03-04T13:37:12.719Z,19.23
2019-03-04T13:39:45.029Z,18.79
2019-03-04T13:42:17.380Z,18.78
2019-03-04T13:44:51.192Z,18.99
2019-03-04T13:47:23.709Z,19.53
2019-03-04T13:49:56.141Z,19.88
2019-03-04T13:52:28.653Z,19.99
2019-03-04T13:55:01.005Z,19.86
2019-03-04T13:57:33.399Z,19.45
2019-03-04T14:00:06.837Z,18.87
2019-03-04T14:02:40.388Z,18.60
2019-03-04T14:05:13.840Z,18.29
2019-03-04T14:07:46.929Z,18.19
2019-03-04T14:10:20.299Z,18.44
2019-03-04T14:12:53.770Z,18.85
2019-03-04T14:15:29.430Z,19.02
2019-03-04T14:18:02.829Z,19.07
2019-03-04T14:20:35.777Z,18.75
2019-03-04T14:23:08.242Z,18.30
2019-03-04T14:25:44.609Z,18.00
2019-03-04T14:28:17.369Z,17.83
2019-03-04T14:30:49.771Z,17.73
2019-03-04T14:33:22.439Z,17.67
2019-03-04T14:39:47.268Z,18.30
2019-03-04T14:42:19.959Z,18.97
2019-03-04T14:44:52.888Z,19.21
2019-03-04T14:47:25.404Z,19.41
2019-03-04T14:50:09.167Z,19.31
2019-03-04T14:52:33.819Z,19.14
2019-03-04T14:55:11.101Z,19.06
2019-03-04T14:57:43.580Z,18.66
2019-03-04T15:00:23.400Z,18.40
2019-03-04T15:02:56.280Z,18.20
2019-03-04T15:05:32.112Z,17.95
2019-03-04T15:08:09.229Z,17.73
2019-03-04T15:10:41.610Z,17.52
2019-03-04T15:13:14.084Z,17.30
2019-03-04T15:15:46.554Z,17.10
2019-03-04T15:18:19.498Z,16.95
2019-03-04T15:20:52.130Z,16.86
2019-03-04T15:23:24.669Z,16.71
2019-03-04T15:25:58.659Z,16.57
2019-03-04T15:28:35.200Z,16.51
2019-03-04T15:31:17.278Z,16.44
2019-03-04T15:33:53.894Z,16.38
2019-03-04T15:36:26.850Z,16.35
2019-03-04T15:39:09.888Z,16.33
2019-03-04T15:41:43.010Z,16.27
2019-03-04T15:44:15.521Z,16.23
2019-03-04T15:46:48.671Z,16.15
2019-03-04T15:49:23.674Z,16.07
2019-03-04T15:51:59.001Z,15.96
2019-03-04T15:54:31.545Z,15.93
2019-03-04T15:57:05.289Z,15.91
2019-03-04T15:59:40.528Z,15.90
2019-03-04T16:02:15.848Z,15.85
2019-03-04T16:04:52.939Z,15.80
2019-03-04T16:07:25.437Z,15.75
2019-03-04T16:09:57.880Z,15.72
2019-03-04T16:12:31.979Z,15.66
2019-03-04T16:15:05.920Z,15.63
2019-03-04T16:17:38.379Z,15.53
2019-03-04T16:20:21.387Z,15.44
2019-03-04T16:22:56.829Z,15.38
2019-03-04T16:25:29.430Z,15.33
2019-03-04T16:28:07.870Z,15.18
2019-03-04T16:30:40.705Z,15.09
2019-03-04T16:33:20.914Z,14.98
2019-03-04T16:35:54.799Z,14.89
2019-03-04T16:38:27.839Z,14.88
2019-03-04T16:41:00.460Z,14.78
2019-03-04T16:43:33.121Z,14.73
2019-03-04T16:46:08.320Z,14.57
2019-03-04T16:48:40.821Z,14.46
2019-03-04T16:51:13.319Z,14.36
2019-03-04T16:53:45.690Z,14.28
2019-03-04T16:56:18.092Z,14.19
2019-03-04T16:58:50.550Z,14.12
2019-03-04T17:01:23.041Z,14.03
2019-03-04T17:03:55.480Z,13.96
2019-03-04T17:06:26.728Z,13.90
2019-03-04T17:08:58.995Z,13.76
2019-03-04T17:11:31.390Z,13.71
2019-03-04T17:14:03.945Z,13.71
2019-03-04T17:16:36.469Z,13.67
2019-03-04T17:19:08.970Z,13.60
2019-03-04T17:21:41.480Z,13.56
2019-03-04T17:24:14.102Z,13.51
2019-03-04T17:26:47.631Z,13.46
2019-03-04T17:29:20.070Z,13.42
2019-03-04T17:31:53.148Z,13.38
2019-03-04T17:34:25.795Z,13.32
2019-03-04T17:36:58.500Z,13.27
2019-03-04T17:39:31.129Z,13.21
2019-03-04T17:42:03.704Z,13.15
2019-03-04T17:44:37.129Z,13.18
2019-03-04T17:47:09.649Z,13.25
2019-03-04T17:49:42.430Z,13.31
2019-03-04T17:52:14.900Z,13.31
2019-03-04T17:54:47.400Z,13.31
2019-03-04T17:57:20.043Z,13.30
2019-03-04T17:59:52.610Z,13.38
2019-03-04T18:02:25.170Z,13.39
2019-03-04T18:04:58.420Z,13.43
2019-03-04T18:07:31.039Z,13.43
2019-03-04T18:10:03.581Z,13.50
2019-03-04T18:12:36.299Z,13.50
2019-03-04T18:15:15.928Z,13.61
2019-03-04T18:17:48.969Z,13.67
2019-03-04T18:20:34.559Z,13.68
2019-03-04T18:23:02.781Z,13.65
2019-03-04T18:25:41.728Z,13.57
2019-03-04T18:28:18.719Z,13.42
2019-03-04T18:31:24.067Z,13.32
2019-03-04T18:34:35.296Z,13.23
2019-03-04T18:37:45.410Z,13.21
2019-03-04T18:40:26.653Z,13.30
2019-03-04T18:43:54.508Z,13.45
2019-03-04T18:47:01.539Z,13.53
2019-03-04T18:49:34.337Z,13.56
2019-03-04T18:52:06.859Z,13.57
2019-03-04T18:54:39.262Z,13.53
2019-03-04T18:57:11.730Z,13.40
2019-03-04T18:59:44.220Z,13.27
2019-03-04T19:02:17.540Z,13.14
2019-03-04T19:04:50.082Z,13.05
2019-03-04T19:07:22.559Z,13.06
2019-03-04T19:09:55.209Z,13.26
2019-03-04T19:12:30.643Z,13.37
2019-03-04T19:15:03.129Z,13.49
2019-03-04T19:17:35.860Z,13.58
2019-03-04T19:20:13.571Z,13.58
2019-03-04T19:22:50.479Z,13.69
2019-03-04T19:25:23.159Z,13.71
2019-03-04T19:27:55.749Z,13.75
2019-03-04T19:30:28.070Z,13.80
2019-03-04T19:32:59.408Z,13.99
2019-03-04T19:35:32.139Z,14.11
2019-03-04T19:38:04.659Z,14.11
2019-03-04T19:40:37.717Z,14.17
2019-03-04T19:43:10.238Z,14.17
2019-03-04T19:45:42.791Z,14.21
2019-03-04T19:48:15.339Z,14.23
2019-03-04T19:50:47.920Z,14.24
2019-03-04T19:53:20.199Z,14.27
2019-03-04T19:55:51.596Z,14.24
2019-03-04T19:58:23.839Z,14.14
2019-03-04T20:00:56.349Z,14.03
2019-03-04T20:03:28.819Z,13.94
2019-03-04T20:06:01.340Z,13.87
2019-03-04T20:08:33.809Z,13.81
2019-03-04T20:11:06.464Z,13.78
2019-03-04T20:13:38.969Z,13.71
2019-03-04T20:16:12.039Z,13.70
2019-03-04T20:18:44.529Z,13.68
2019-03-04T20:21:17.029Z,13.67
2019-03-04T20:23:49.689Z,13.66
2019-03-04T20:26:22.429Z,13.70
2019-03-04T20:28:56.628Z,13.70
2019-03-04T20:31:29.174Z,13.67
2019-03-04T20:34:02.983Z,13.61
2019-03-04T20:36:35.757Z,13.57
2019-03-04T20:39:10.674Z,13.34
2019-03-04T20:41:43.781Z,13.11
2019-03-04T20:44:16.999Z,12.81
2019-03-04T20:46:49.469Z,12.47
2019-03-04T20:49:22.139Z,12.35
2019-03-04T20:51:54.624Z,12.17
2019-03-04T20:54:27.130Z,11.85
2019-03-04T20:56:59.529Z,11.75
2019-03-04T20:59:32.249Z,11.78
2019-03-04T21:02:05.309Z,11.78
2019-03-04T21:04:37.750Z,11.76
2019-03-04T21:07:11.849Z,11.75
2019-03-04T21:09:44.369Z,11.74
2019-03-04T21:12:18.372Z,11.67
2019-03-04T21:14:50.989Z,11.62
2019-03-04T21:17:25.320Z,11.54
2019-03-04T21:19:57.909Z,11.44
2019-03-04T21:22:30.539Z,11.39
2019-03-04T21:25:07.418Z,11.31
2019-03-04T21:27:43.168Z,11.29
2019-03-04T21:30:53.369Z,11.22
2019-03-04T21:33:54.019Z,11.19
2019-03-04T21:36:59.726Z,11.14
2019-03-04T21:39:36.751Z,11.07
2019-03-04T21:42:16.277Z,11.03
2019-03-04T21:45:27.519Z,11.01
2019-03-04T21:48:04.172Z,10.96
2019-03-04T21:51:04.530Z,10.92
2019-03-04T21:53:41.206Z,10.86
2019-03-04T21:56:44.429Z,10.83
2019-03-04T21:59:16.969Z,10.76
2019-03-04T22:01:57.033Z,10.72
2019-03-04T22:04:29.464Z,10.65
2019-03-04T22:07:02.131Z,10.57
2019-03-04T22:09:34.687Z,10.52
2019-03-04T22:12:12.360Z,10.48
2019-03-04T22:14:45.059Z,10.49
2019-03-04T22:17:17.828Z,10.50
2019-03-04T22:19:53.482Z,10.51
2019-03-04T22:22:27.104Z,10.53
2019-03-04T22:24:59.501Z,10.50
2019-03-04T22:27:32.054Z,10.46
2019-03-04T22:30:04.421Z,10.43
2019-03-04T22:32:37.141Z,10.40
2019-03-04T22:35:10.917Z,10.40
2019-03-04T22:37:43.308Z,10.37
2019-03-04T22:40:17.442Z,10.35
2019-03-04T22:42:49.908Z,10.39
2019-03-04T22:45:22.499Z,10.37
2019-03-04T22:47:54.912Z,10.39
2019-03-04T22:50:28.350Z,10.40
2019-03-04T22:52:59.878Z,10.39
2019-03-04T22:55:36.675Z,10.38
2019-03-04T22:58:09.126Z,10.37
2019-03-04T23:01:27.632Z,10.38
2019-03-04T23:04:10.008Z,10.35
2019-03-04T23:06:44.737Z,10.31
2019-03-04T23:09:17.930Z,10.30
2019-03-04T23:11:55.557Z,10.24
2019-03-04T23:14:29.619Z,10.19
2019-03-04T23:17:02.009Z,10.18
2019-03-04T23:19:34.400Z,10.19
2019-03-04T23:22:06.889Z,10.16
2019-03-04T23:24:39.259Z,10.14
2019-03-04T23:27:11.619Z,10.12
2019-03-04T23:29:43.873Z,10.14
2019-03-04T23:32:15.078Z,10.11
2019-03-04T23:34:47.251Z,10.03
2019-03-04T23:37:19.539Z,10.06
2019-03-04T23:39:50.957Z,10.04
2019-03-04T23:42:23.339Z,10.03
2019-03-04T23:44:56.561Z,10.08
2019-03-04T23:47:27.838Z,10.11
2019-03-04T23:50:20.412Z,10.10
2019-03-04T23:52:51.729Z,10.11
2019-03-04T23:55:23.879Z,10.09
2019-03-04T23:57:56.439Z,10.08
